Time;durP1;ratioP1;P1;durP2;ratioP2;P2;SDS_P1;SDS_P2;PMS_P1;PMS_P2;Temp;Humidity;BMP_temperature;BMP_pressure;BME280_temperature;BME280_humidity;BME280_pressure;Samples;Min_cycle;Max_cycle;Signal;HPM_P1;HPM_P2
2023/12/28 00:02:36;;;;;;;;;;;;;;;;;;;;;
2023/12/28 00:08:13;;;;;;;;;;;;;;;7.96;88.25;100424.16;4879571;29;19927;-78
2023/12/28 00:14:14;;;;;;;;;;;;;;;7.98;88.25;100444.38;4805779;29;19928;-77
2023/12/28 00:20:00;;;;;;;;;;;;;;;8.13;87.62;100438.97;4897317;29;19940;-77
2023/12/28 00:22:32;;;;;;;;;;;;;;;8.12;88.16;100428.44;4892148;29;20479;-77
2023/12/28 00:28:14;;;;;;;;;;;;;;;7.96;89.23;100440.22;4895751;29;19997;-77
2023/12/28 00:33:25;;;;;;;;;;;;;;;8.15;88.85;100439.63;4856272;29;20046;-77
2023/12/28 00:48:02;;;;;;;;;;;;;;;8.02;90.35;100434.94;4896697;29;19929;-77
2023/12/28 00:50:43;;;;;;;;;;;;;;;8.04;90.71;100449.00;4936141;29;20380;-77
2023/12/28 00:53:17;;;;;;;;;;;;;;;8.15;90.12;100462.91;4934936;29;20383;-77
2023/12/28 01:05:28;;;;;;;;;;;;;;;8.09;91.77;100477.09;4859818;29;20029;-78
2023/12/28 01:13:43;;;;;;;;;;;;;;;8.14;93.06;100490.72;4942809;29;19937;-77
2023/12/28 01:19:23;;;;;;;;;;;;;;;8.15;94.02;100497.75;4884768;29;20361;-77
2023/12/28 01:22:16;;;;;;;;;;;;;;;8.15;94.39;100487.03;4875832;29;19924;-76
2023/12/28 01:24:51;;;;;;;;;;;;;;;8.15;94.25;100487.88;4894397;29;19912;-77
2023/12/28 01:39:19;;;;;;;;;;;;;;;8.17;96.17;100514.47;4941607;29;19965;-77
2023/12/28 01:41:50;;;;;;;;;;;;;;;8.17;97.04;100517.16;4941169;29;19922;-77
2023/12/28 01:59:37;;;;;;;;;;;;;;;8.13;98.18;100515.88;4884334;29;20027;-78
2023/12/28 02:07:52;;;;;;;;;;;;;;;8.12;99.44;100538.38;4936239;29;19933;-77
2023/12/28 02:10:32;;;;;;;;;;;;;;;8.07;99.96;100543.47;4937895;29;19923;-78
2023/12/28 02:13:16;;;;;;;;;;;;;;;8.12;99.13;100536.50;4938703;29;20442;-77
2023/12/28 02:16:18;;;;;;;;;;;;;;;8.12;99.69;100522.28;4953363;29;19923;-77
2023/12/28 02:19:18;;;;;;;;;;;;;;;8.15;99.87;100535.28;4938141;29;19956;-77
2023/12/28 02:21:49;;;;;;;;;;;;;;;8.15;100.00;100522.72;4956783;29;19931;-77
2023/12/28 02:27:41;;;;;;;;;;;;;;;8.11;100.00;100528.66;4937918;29;19946;-78
2023/12/28 02:30:06;;;;;;;;;;;;;;;8.13;100.00;100523.91;5097733;23;19985;-77
2023/12/28 02:32:42;;;;;;;;;;;;;;;8.11;100.00;100528.66;4917794;29;20394;-77
2023/12/28 02:35:17;;;;;;;;;;;;;;;8.14;100.00;100533.63;4921965;29;19962;-77
2023/12/28 02:37:43;;;;;;;;;;;;;;;8.14;100.00;100528.25;4940476;29;20387;-77
2023/12/28 02:40:08;;;;;;;;;;;;;;;8.09;100.00;100509.25;4940814;29;20071;-77
2023/12/28 02:42:37;;;;;;;;;;;;;;;8.03;100.00;100521.56;4956197;29;19927;-76
2023/12/28 02:45:02;;;;;;;;;;;;;;;8.02;100.00;100511.88;4926272;29;19923;-77
2023/12/28 02:47:27;;;;;;;;;;;;;;;7.95;100.00;100509.06;4955434;29;19946;-77
2023/12/28 02:49:58;;;;;;;;;;;;;;;7.91;100.00;100507.81;4957061;29;19930;-77
2023/12/28 02:52:24;;;;;;;;;;;;;;;7.89;100.00;100513.34;4944771;29;19919;-76
2023/12/28 02:54:51;;;;;;;;;;;;;;;7.88;100.00;100513.53;4943115;29;19922;-77
2023/12/28 02:57:18;;;;;;;;;;;;;;;7.81;100.00;100504.56;4940061;29;20140;-77
2023/12/28 02:59:46;;;;;;;;;;;;;;;7.84;100.00;100502.38;4938820;29;19926;-77
2023/12/28 03:02:11;;;;;;;;;;;;;;;7.82;100.00;100480.28;4938604;29;19959;-77
2023/12/28 03:07:15;;;;;;;;;;;;;;;7.77;100.00;100490.72;5016478;23;20002;-77
2023/12/28 03:09:46;;;;;;;;;;;;;;;7.80;100.00;100478.81;4936935;29;19923;-77
2023/12/28 03:15:26;;;;;;;;;;;;;;;7.82;100.00;100487.47;4935975;29;20321;-77
2023/12/28 03:18:03;;;;;;;;;;;;;;;7.74;100.00;100481.22;4936160;29;19947;-78
2023/12/28 03:58:40;;;;;;;;;;;;;;;7.53;100.00;100467.78;5093930;23;19926;-77
2023/12/28 04:01:05;;;;;;;;;;;;;;;7.52;100.00;100476.81;4934820;29;19922;-77
2023/12/28 04:03:33;;;;;;;;;;;;;;;7.47;100.00;100484.56;4935805;29;19915;-77
2023/12/28 04:05:58;;;;;;;;;;;;;;;7.46;100.00;100461.47;4936370;29;20376;-77
2023/12/28 04:08:23;;;;;;;;;;;;;;;7.44;100.00;100459.81;4934639;29;19930;-77
2023/12/28 04:10:49;;;;;;;;;;;;;;;7.55;100.00;100471.09;4935419;29;19922;-77
2023/12/28 04:13:14;;;;;;;;;;;;;;;7.63;100.00;100472.84;4951335;29;19923;-77
2023/12/28 04:15:41;;;;;;;;;;;;;;;7.68;100.00;100463.22;4934826;29;19927;-77
2023/12/28 04:18:06;;;;;;;;;;;;;;;7.78;100.00;100459.41;4935462;29;20379;-77
2023/12/28 04:20:31;;;;;;;;;;;;;;;7.82;100.00;100479.44;4936263;29;19966;-77
2023/12/28 04:22:57;;;;;;;;;;;;;;;7.87;100.00;100479.72;4934539;29;19927;-77
2023/12/28 04:25:22;;;;;;;;;;;;;;;7.93;100.00;100462.91;4935007;29;20009;-77
2023/12/28 04:27:47;;;;;;;;;;;;;;;7.90;100.00;100482.03;4936212;29;19918;-77
2023/12/28 04:30:15;;;;;;;;;;;;;;;7.93;100.00;100484.34;4934492;29;19947;-77
2023/12/28 04:32:41;;;;;;;;;;;;;;;7.88;100.00;100498.28;4935113;29;20346;-77
2023/12/28 04:35:09;;;;;;;;;;;;;;;7.94;100.00;100461.03;4936175;29;20029;-76
2023/12/28 04:37:37;;;;;;;;;;;;;;;7.92;100.00;100461.22;4934586;29;19926;-77
2023/12/28 04:40:03;;;;;;;;;;;;;;;8.03;100.00;100484.84;4935592;29;19923;-77
2023/12/28 04:42:29;;;;;;;;;;;;;;;8.03;100.00;100492.91;4936013;29;19919;-77
2023/12/28 04:44:54;;;;;;;;;;;;;;;8.00;100.00;100473.69;4934916;29;19919;-77
2023/12/28 04:47:19;;;;;;;;;;;;;;;8.03;100.00;100474.13;4935619;29;19927;-77
2023/12/28 04:49:44;;;;;;;;;;;;;;;8.03;100.00;100479.50;4936926;29;19918;-77
2023/12/28 04:52:12;;;;;;;;;;;;;;;8.03;100.00;100463.41;4935648;29;19927;-78
2023/12/28 07:15:40;;;;;;;;;;;;;;;8.32;100.00;100552.00;5206176;23;20372;-78
2023/12/28 07:20:52;;;;;;;;;;;;;;;8.31;100.00;100556.50;5782099;23;19931;-78
2023/12/28 07:23:19;;;;;;;;;;;;;;;8.31;100.00;100561.88;4934757;29;19922;-76
2023/12/28 07:25:48;;;;;;;;;;;;;;;8.32;100.00;100566.22;4932716;29;19923;-76
2023/12/28 07:28:50;;;;;;;;;;;;;;;8.32;100.00;100568.09;4935388;29;19918;-85
2023/12/28 07:31:28;;;;;;;;;;;;;;;8.30;100.00;100570.13;4884391;29;19933;-78
2023/12/28 07:33:53;;;;;;;;;;;;;;;8.30;100.00;100575.50;4940617;23;19973;-77
2023/12/28 07:36:19;;;;;;;;;;;;;;;8.31;100.00;100575.28;4940466;29;19923;-75
2023/12/28 07:38:49;;;;;;;;;;;;;;;8.29;100.00;100580.03;4934568;29;20443;-78
2023/12/28 07:41:15;;;;;;;;;;;;;;;8.30;100.00;100581.66;4935286;29;19930;-78
2023/12/28 07:43:47;;;;;;;;;;;;;;;8.37;100.00;100583.59;4935073;29;20248;-79
2023/12/28 07:46:12;;;;;;;;;;;;;;;8.37;100.00;100583.59;4933961;29;19965;-79
2023/12/28 07:48:41;;;;;;;;;;;;;;;8.37;100.00;100591.66;4935137;29;20388;-75
2023/12/28 07:51:06;;;;;;;;;;;;;;;8.37;100.00;100597.03;4934268;29;20402;-75
2023/12/28 07:53:32;;;;;;;;;;;;;;;8.36;100.00;100590.84;4933101;29;20347;-75
2023/12/28 07:55:57;;;;;;;;;;;;;;;8.34;100.00;100582.16;4935695;29;19919;-75
2023/12/28 07:58:22;;;;;;;;;;;;;;;8.35;100.00;100583.81;4933612;29;19918;-75
2023/12/28 08:00:47;;;;;;;;;;;;;;;8.36;100.00;100580.09;4933156;29;19922;-75
2023/12/28 08:03:15;;;;;;;;;;;;;;;8.39;98.82;100576.19;4935011;29;20058;-75
2023/12/28 08:05:40;;;;;;;;;;;;;;;8.40;98.83;100597.47;4934048;29;20386;-75
2023/12/28 08:08:06;;;;;;;;;;;;;;;8.47;98.33;100605.63;4916246;29;19927;-72
2023/12/28 08:10:31;;;;;;;;;;;;;;;8.42;99.13;100599.97;4934830;29;20281;-75
2023/12/28 08:12:59;;;;;;;;;;;;;;;8.39;98.82;100606.53;4934841;29;19922;-75
2023/12/28 08:15:24;;;;;;;;;;;;;;;8.43;98.54;100618.56;4933255;29;19923;-75
2023/12/28 08:17:51;;;;;;;;;;;;;;;8.44;98.10;100612.16;4934008;29;19930;-73
2023/12/28 08:20:16;;;;;;;;;;;;;;;8.44;98.00;100619.41;4933566;29;19998;-73
2023/12/28 08:22:41;;;;;;;;;;;;;;;8.50;97.20;100618.66;4932735;29;19978;-73
2023/12/28 08:25:07;;;;;;;;;;;;;;;8.54;96.32;100630.69;4934644;29;19919;-74
2023/12/28 08:27:32;;;;;;;;;;;;;;;8.61;96.01;100631.59;4933818;29;19919;-73
2023/12/28 08:29:57;;;;;;;;;;;;;;;8.64;95.13;100636.59;4933267;29;19923;-73
2023/12/28 08:32:22;;;;;;;;;;;;;;;8.67;95.14;100646.09;4933659;29;20058;-73
2023/12/28 08:34:49;;;;;;;;;;;;;;;8.66;95.05;100636.38;4934596;29;19998;-75
2023/12/28 08:37:17;;;;;;;;;;;;;;;8.64;94.96;100643.78;4933295;29;19926;-74
2023/12/28 08:39:42;;;;;;;;;;;;;;;8.71;94.42;100646.53;4934939;29;19923;-74
2023/12/28 08:42:07;;;;;;;;;;;;;;;8.72;94.20;100642.84;4939105;29;19930;-74
2023/12/28 08:44:33;;;;;;;;;;;;;;;8.70;94.19;100651.09;4941095;29;19966;-74
2023/12/28 08:46:58;;;;;;;;;;;;;;;8.72;93.97;100642.84;4942615;29;20357;-74
2023/12/28 08:49:27;;;;;;;;;;;;;;;8.83;93.48;100628.09;4951900;28;19921;-73
2023/12/28 08:51:52;;;;;;;;;;;;;;;8.87;92.95;100640.13;4960891;29;19925;-74
2023/12/28 08:54:18;;;;;;;;;;;;;;;8.96;92.96;100641.63;4945341;29;20009;-74
2023/12/28 08:56:43;;;;;;;;;;;;;;;8.88;93.41;100637.22;4940066;29;20052;-74
2023/12/28 08:59:08;;;;;;;;;;;;;;;9.00;93.25;100639.44;4940278;29;19919;-74
2023/12/28 09:01:37;;;;;;;;;;;;;;;9.04;92.77;100638.00;4940075;29;19925;-74
2023/12/28 09:04:02;;;;;;;;;;;;;;;8.91;93.01;100636.84;4940332;29;20462;-74
2023/12/28 09:06:27;;;;;;;;;;;;;;;9.01;92.72;100641.06;4939524;29;19918;-74
2023/12/28 09:08:52;;;;;;;;;;;;;;;9.04;92.60;100640.69;4939340;29;20175;-74
2023/12/28 09:11:18;;;;;;;;;;;;;;;9.08;91.82;100626.69;4944962;23;19927;-74
2023/12/28 09:13:46;;;;;;;;;;;;;;;9.21;91.47;100636.72;4901671;29;20379;-74
2023/12/28 09:16:11;;;;;;;;;;;;;;;9.17;91.47;100646.19;4902931;29;19920;-74
2023/12/28 09:18:39;;;;;;;;;;;;;;;9.22;91.31;100646.44;4906823;29;19919;-74
2023/12/28 09:21:05;;;;;;;;;;;;;;;9.16;91.49;100657.97;4949163;23;19931;-74
2023/12/28 09:23:32;;;;;;;;;;;;;;;9.18;92.24;100673.88;4946320;29;19989;-73
2023/12/28 09:25:58;;;;;;;;;;;;;;;9.02;92.77;100674.94;4940670;29;20343;-73
2023/12/28 09:28:23;;;;;;;;;;;;;;;9.04;92.42;100675.59;4940319;29;19923;-73
2023/12/28 09:30:49;;;;;;;;;;;;;;;8.97;92.95;100678.22;4940159;29;19922;-74
2023/12/28 09:33:16;;;;;;;;;;;;;;;8.99;93.14;100673.47;4940516;29;20341;-73
2023/12/28 09:35:41;;;;;;;;;;;;;;;8.99;93.47;100680.72;4940081;29;20010;-73
2023/12/28 09:38:06;;;;;;;;;;;;;;;8.87;93.49;100683.06;4940484;29;20002;-73
2023/12/28 09:40:31;;;;;;;;;;;;;;;9.00;92.69;100683.19;4940530;29;20410;-73
2023/12/28 09:43:04;;;;;;;;;;;;;;;9.03;92.18;100681.97;4940553;29;19927;-73
2023/12/28 09:45:29;;;;;;;;;;;;;;;9.06;91.89;100689.66;4923779;29;19954;-73
2023/12/28 09:47:54;;;;;;;;;;;;;;;9.07;92.24;100672.53;4943969;29;20372;-75
2023/12/28 09:50:20;;;;;;;;;;;;;;;9.12;91.36;100669.25;4943377;29;19923;-74
2023/12/28 09:52:45;;;;;;;;;;;;;;;9.16;91.27;100676.75;4953897;29;19970;-74
2023/12/28 09:55:10;;;;;;;;;;;;;;;9.12;91.86;100677.31;4937851;29;19919;-73
2023/12/28 09:57:36;;;;;;;;;;;;;;;9.19;91.27;100681.72;4937628;29;19922;-73
2023/12/28 10:00:02;;;;;;;;;;;;;;;9.21;90.85;100685.06;4936477;29;19934;-73
2023/12/28 10:02:29;;;;;;;;;;;;;;;9.25;90.98;100689.03;4937612;29;19919;-73
2023/12/28 10:04:54;;;;;;;;;;;;;;;9.30;90.30;100677.69;4922018;29;19919;-74
2023/12/28 10:07:22;;;;;;;;;;;;;;;9.32;90.14;100680.22;4936472;29;20306;-74
2023/12/28 10:09:47;;;;;;;;;;;;;;;9.34;90.03;100687.03;4943148;29;19965;-74
2023/12/28 10:12:13;;;;;;;;;;;;;;;9.44;90.03;100678.66;4939607;29;19974;-74
2023/12/28 10:14:38;;;;;;;;;;;;;;;9.50;89.98;100685.09;4921198;29;19923;-74
2023/12/28 10:17:03;;;;;;;;;;;;;;;9.48;90.05;100688.00;4942264;29;19938;-74
2023/12/28 10:19:28;;;;;;;;;;;;;;;9.54;89.18;100692.56;4954108;29;19922;-73
2023/12/28 10:21:53;;;;;;;;;;;;;;;9.63;88.74;100692.44;4953985;29;19939;-72
2023/12/28 10:24:19;;;;;;;;;;;;;;;9.70;88.99;100690.66;4936635;29;19975;-73
2023/12/28 10:26:44;;;;;;;;;;;;;;;9.77;88.13;100698.75;4936604;29;19923;-73
2023/12/28 10:29:09;;;;;;;;;;;;;;;9.75;88.35;100674.75;4949949;29;20013;-73
2023/12/28 10:31:35;;;;;;;;;;;;;;;9.81;87.65;100636.34;4936217;29;19962;-73
2023/12/28 10:34:02;;;;;;;;;;;;;;;9.96;87.92;100675.72;4936143;29;20267;-73
2023/12/28 10:36:27;;;;;;;;;;;;;;;9.99;85.85;100675.34;4916932;29;19958;-73
2023/12/28 10:38:53;;;;;;;;;;;;;;;9.93;85.90;100684.19;4935312;29;19961;-73
2023/12/28 10:41:18;;;;;;;;;;;;;;;9.95;85.54;100668.69;4935204;29;20258;-74
2023/12/28 10:43:43;;;;;;;;;;;;;;;9.86;86.00;100676.91;4901169;29;19923;-73
2023/12/28 10:46:09;;;;;;;;;;;;;;;9.86;85.48;100695.75;4919555;29;19919;-73
2023/12/28 10:48:35;;;;;;;;;;;;;;;9.79;85.77;100685.97;4919199;29;19919;-73
2023/12/28 10:51:00;;;;;;;;;;;;;;;9.75;84.74;100677.44;4893248;23;19927;-73
2023/12/28 10:53:31;;;;;;;;;;;;;;;9.74;85.89;100686.53;4913718;23;19938;-73
2023/12/28 10:56:11;;;;;;;;;;;;;;;9.78;84.54;100674.38;4916029;29;19934;-73
2023/12/28 10:58:36;;;;;;;;;;;;;;;9.80;84.67;100677.69;4899089;29;19927;-73
2023/12/28 11:01:02;;;;;;;;;;;;;;;9.85;83.85;100674.41;4915470;29;19946;-74
2023/12/28 11:03:33;;;;;;;;;;;;;;;9.93;84.48;100670.72;4916345;29;20014;-74
2023/12/28 11:05:58;;;;;;;;;;;;;;;9.95;83.25;100672.22;4949673;23;19958;-74
2023/12/28 11:08:23;;;;;;;;;;;;;;;10.04;83.63;100682.78;4930336;29;19969;-73
2023/12/28 11:10:50;;;;;;;;;;;;;;;10.02;84.04;100664.19;4916130;29;19976;-73
2023/12/28 11:13:16;;;;;;;;;;;;;;;9.91;84.94;100667.41;4915808;29;19924;-74
2023/12/28 11:15:41;;;;;;;;;;;;;;;9.85;85.42;100658.28;4915180;29;19927;-74
2023/12/28 11:18:06;;;;;;;;;;;;;;;9.77;85.68;100653.88;4915975;29;19939;-74
2023/12/28 11:20:39;;;;;;;;;;;;;;;9.78;86.02;100660.91;4921064;23;19931;-74
2023/12/28 11:23:04;;;;;;;;;;;;;;;9.87;86.80;100661.59;4922050;23;20090;-77
2023/12/28 11:25:32;;;;;;;;;;;;;;;9.85;86.55;100659.13;4895808;29;19930;-75
2023/12/28 11:27:58;;;;;;;;;;;;;;;9.92;86.51;100669.91;4896976;29;19920;-77
2023/12/28 11:30:25;;;;;;;;;;;;;;;9.84;86.67;100662.84;4896628;29;20307;-76
2023/12/28 11:32:53;;;;;;;;;;;;;;;9.83;86.26;100665.69;4910930;23;20096;-76
2023/12/28 11:35:18;;;;;;;;;;;;;;;9.92;86.29;100661.00;4949075;29;19946;-76
2023/12/28 11:37:47;;;;;;;;;;;;;;;9.96;85.79;100668.50;4934499;29;20371;-76
2023/12/28 11:40:14;;;;;;;;;;;;;;;9.94;85.88;100667.00;4949275;29;19930;-76
2023/12/28 11:42:47;;;;;;;;;;;;;;;9.91;86.74;100664.72;4934400;29;19930;-76
2023/12/28 11:45:12;;;;;;;;;;;;;;;9.90;86.06;100660.38;4933764;29;19969;-75
2023/12/28 11:47:37;;;;;;;;;;;;;;;9.92;86.68;100653.78;4935297;29;19966;-76
2023/12/28 11:50:06;;;;;;;;;;;;;;;9.83;85.78;100661.16;4934555;29;19950;-76
2023/12/28 11:52:32;;;;;;;;;;;;;;;9.81;85.55;100667.75;4931839;29;19926;-76
2023/12/28 11:54:59;;;;;;;;;;;;;;;9.74;86.53;100665.03;4935042;29;20046;-74
2023/12/28 11:57:24;;;;;;;;;;;;;;;9.72;87.49;100653.63;4933955;29;20006;-73
2023/12/28 11:59:53;;;;;;;;;;;;;;;9.96;86.03;100633.53;4933554;29;19954;-73
2023/12/28 12:02:18;;;;;;;;;;;;;;;9.96;85.64;100644.28;4934638;29;20009;-74
2023/12/28 12:04:43;;;;;;;;;;;;;;;9.91;85.42;100662.03;4934008;29;20133;-75
2023/12/28 12:07:09;;;;;;;;;;;;;;;9.96;85.75;100654.22;4933686;29;19923;-75
2023/12/28 12:09:34;;;;;;;;;;;;;;;9.97;84.28;100645.13;4934373;29;20457;-74
2023/12/28 12:12:02;;;;;;;;;;;;;;;9.99;84.36;100645.75;4934177;29;19915;-74
2023/12/28 12:14:30;;;;;;;;;;;;;;;10.02;84.51;100646.19;4933680;29;19942;-75
2023/12/28 12:16:58;;;;;;;;;;;;;;;9.94;85.38;100645.50;4933758;29;20039;-74
2023/12/28 12:19:25;;;;;;;;;;;;;;;10.07;84.18;100639.38;4934515;29;20104;-74
2023/12/28 12:21:58;;;;;;;;;;;;;;;10.04;83.16;100637.94;4933722;29;19919;-74
2023/12/28 12:24:23;;;;;;;;;;;;;;;9.97;83.55;100635.16;4919557;29;20026;-74
2023/12/28 12:26:51;;;;;;;;;;;;;;;9.98;83.39;100638.72;4933934;29;20320;-75
2023/12/28 12:29:17;;;;;;;;;;;;;;;9.91;83.60;100624.38;4934150;29;20231;-75
2023/12/28 12:31:42;;;;;;;;;;;;;;;9.90;83.07;100638.84;4934765;29;19919;-76
2023/12/28 12:34:11;;;;;;;;;;;;;;;9.95;83.16;100612.22;4992058;23;19939;-76
2023/12/28 12:36:36;;;;;;;;;;;;;;;9.85;83.64;100620.63;4897040;29;19923;-75
2023/12/28 12:39:04;;;;;;;;;;;;;;;9.85;82.96;100631.38;4899022;29;20435;-75
2023/12/28 12:41:29;;;;;;;;;;;;;;;9.79;83.78;100624.13;4985158;23;19971;-74
2023/12/28 12:43:56;;;;;;;;;;;;;;;9.83;83.48;100628.06;4936784;29;19923;-75
2023/12/28 12:46:22;;;;;;;;;;;;;;;9.82;83.34;100619.19;4948609;29;19923;-75
2023/12/28 12:48:56;;;;;;;;;;;;;;;9.83;82.69;100620.00;4933319;29;19942;-74
2023/12/28 12:51:22;;;;;;;;;;;;;;;9.89;82.09;100619.22;4933566;29;20053;-74
2023/12/28 12:53:47;;;;;;;;;;;;;;;9.77;82.91;100618.94;4914006;29;20014;-74
2023/12/28 12:56:13;;;;;;;;;;;;;;;9.69;83.62;100590.34;4928466;29;19930;-74
2023/12/28 12:58:38;;;;;;;;;;;;;;;9.80;82.82;100618.53;4929454;29;19927;-74
2023/12/28 13:01:03;;;;;;;;;;;;;;;9.76;82.73;100616.47;4927775;29;19930;-74
2023/12/28 13:03:29;;;;;;;;;;;;;;;9.73;83.14;100614.97;4932046;29;19923;-75
2023/12/28 13:05:56;;;;;;;;;;;;;;;9.70;82.76;100624.28;4935823;29;19935;-74
2023/12/28 13:08:21;;;;;;;;;;;;;;;9.73;82.34;100624.91;4948105;29;19923;-75
2023/12/28 13:10:46;;;;;;;;;;;;;;;9.73;81.85;100612.28;4946970;29;19965;-75
2023/12/28 13:21:27;;;;;;;;;;;;;;;9.75;82.46;100599.47;4925471;29;19926;-75
2023/12/28 13:24:14;;;;;;;;;;;;;;;9.70;82.29;100601.94;4932675;29;19923;-75
2023/12/28 13:30:14;;;;;;;;;;;;;;;9.65;82.71;100618.66;4937431;29;20299;-75
2023/12/28 13:36:10;;;;;;;;;;;;;;;9.60;83.07;100604.13;4945775;29;19925;-75
2023/12/28 13:54:12;;;;;;;;;;;;;;;9.55;83.20;100618.19;4900182;29;19933;-75
2023/12/28 14:05:33;;;;;;;;;;;;;;;9.49;83.30;100624.31;4947903;29;19947;-76
2023/12/28 14:08:14;;;;;;;;;;;;;;;9.51;83.51;100619.59;4941477;29;19926;-76
2023/12/28 14:14:11;;;;;;;;;;;;;;;9.47;83.99;100629.91;4936125;29;19974;-75
2023/12/28 14:38:30;;;;;;;;;;;;;;;9.37;86.10;100605.22;4936727;29;19930;-77
2023/12/28 14:40:59;;;;;;;;;;;;;;;9.38;85.89;100607.72;4934902;29;19930;-77
2023/12/28 14:43:54;;;;;;;;;;;;;;;9.37;86.10;100591.78;4936051;29;19933;-77
2023/12/28 14:46:40;;;;;;;;;;;;;;;9.31;86.50;100598.78;4929764;29;19958;-76
2023/12/28 14:49:12;;;;;;;;;;;;;;;9.34;86.79;100597.56;4935290;29;19970;-75
2023/12/28 14:51:38;;;;;;;;;;;;;;;9.32;86.81;100595.06;4960364;23;19967;-75
2023/12/28 14:56:31;;;;;;;;;;;;;;;9.28;87.47;100583.03;4914974;29;20402;-77
2023/12/28 14:58:56;;;;;;;;;;;;;;;9.28;87.66;100576.84;4917079;29;19927;-77
2023/12/28 15:01:22;;;;;;;;;;;;;;;9.22;88.02;100563.16;4916957;29;20306;-75
2023/12/28 15:03:47;;;;;;;;;;;;;;;9.17;88.47;100568.31;4915804;29;19934;-75
2023/12/28 15:06:15;;;;;;;;;;;;;;;9.14;88.53;100559.78;4915378;29;19978;-76
2023/12/28 15:08:41;;;;;;;;;;;;;;;9.05;89.45;100553.72;4916398;29;20384;-78
2023/12/28 15:11:09;;;;;;;;;;;;;;;9.06;89.42;100547.34;4915470;29;19933;-77
2023/12/28 15:13:35;;;;;;;;;;;;;;;9.09;89.26;100542.41;4916324;29;19990;-77
2023/12/28 15:16:00;;;;;;;;;;;;;;;9.10;89.50;100546.75;4915630;29;20316;-74
2023/12/28 15:18:25;;;;;;;;;;;;;;;9.12;89.67;100549.25;4916882;29;20017;-76
2023/12/28 15:20:51;;;;;;;;;;;;;;;9.13;89.22;100537.50;4915827;29;19942;-76
2023/12/28 15:23:16;;;;;;;;;;;;;;;9.14;89.47;100543.69;4916471;29;19923;-76
2023/12/28 15:25:42;;;;;;;;;;;;;;;9.13;90.03;100537.50;4916406;29;20359;-75
2023/12/28 15:28:07;;;;;;;;;;;;;;;9.11;89.85;100536.84;4915796;29;20228;-76
2023/12/28 15:30:32;;;;;;;;;;;;;;;9.11;89.92;100534.16;4915751;29;19931;-76
2023/12/28 15:32:58;;;;;;;;;;;;;;;9.10;89.74;100533.31;4916137;29;19919;-76
2023/12/28 15:35:23;;;;;;;;;;;;;;;9.11;90.18;100550.28;4915084;29;19923;-76
2023/12/28 15:37:50;;;;;;;;;;;;;;;9.02;90.57;100546.06;4915377;29;19919;-76
2023/12/28 15:40:15;;;;;;;;;;;;;;;9.11;90.02;100539.53;4915799;29;19919;-76
2023/12/28 15:42:40;;;;;;;;;;;;;;;9.15;89.77;100532.75;4916010;29;20273;-76
2023/12/28 15:45:06;;;;;;;;;;;;;;;9.17;89.54;100538.78;4914725;29;19942;-76
2023/12/28 15:47:31;;;;;;;;;;;;;;;9.18;89.24;100539.59;4915269;29;20015;-76
2023/12/28 15:49:56;;;;;;;;;;;;;;;9.23;88.40;100527.22;4915576;29;19922;-76
2023/12/28 15:52:21;;;;;;;;;;;;;;;9.20;88.66;100532.16;4914735;29;19987;-76
2023/12/28 15:54:47;;;;;;;;;;;;;;;9.23;88.55;100521.03;4915263;29;19962;-76
2023/12/28 15:57:12;;;;;;;;;;;;;;;9.25;87.79;100513.63;4915501;29;19927;-76
2023/12/28 15:59:37;;;;;;;;;;;;;;;9.25;87.17;100524.38;4914980;29;19915;-76
2023/12/28 16:02:02;;;;;;;;;;;;;;;9.23;87.09;100542.53;4915789;29;19938;-76
2023/12/28 16:04:28;;;;;;;;;;;;;;;9.16;87.09;100523.69;4915242;29;19986;-75
2023/12/28 16:06:56;;;;;;;;;;;;;;;9.22;87.06;100536.31;4914028;29;19919;-77
2023/12/28 16:09:21;;;;;;;;;;;;;;;9.23;86.89;100534.47;4914992;29;20432;-76
2023/12/28 16:11:46;;;;;;;;;;;;;;;9.22;86.55;100525.56;4915684;29;19927;-76
2023/12/28 16:14:12;;;;;;;;;;;;;;;9.27;85.70;100537.59;4913660;29;19949;-77
2023/12/28 16:16:37;;;;;;;;;;;;;;;9.28;85.72;100528.50;4915223;29;20017;-77
2023/12/28 16:19:03;;;;;;;;;;;;;;;9.25;86.20;100535.91;4916031;29;19919;-76
2023/12/28 16:21:30;;;;;;;;;;;;;;;9.27;85.81;100534.91;4914393;29;19923;-77
2023/12/28 16:23:56;;;;;;;;;;;;;;;9.24;85.99;100533.44;4898958;29;19931;-76
2023/12/28 16:26:21;;;;;;;;;;;;;;;9.24;85.71;100531.56;4914772;29;20397;-76
2023/12/28 16:28:46;;;;;;;;;;;;;;;9.25;85.82;100545.84;4915680;29;20014;-76
2023/12/28 16:31:12;;;;;;;;;;;;;;;9.23;85.86;100543.34;4918828;29;19915;-75
2023/12/28 16:33:37;;;;;;;;;;;;;;;9.17;86.42;100533.41;4917478;29;19927;-74
2023/12/28 16:36:02;;;;;;;;;;;;;;;9.15;86.17;100539.97;4934901;28;19961;-78
2023/12/28 16:38:27;;;;;;;;;;;;;;;9.16;85.90;100539.78;4931774;29;19923;-76
2023/12/28 16:40:53;;;;;;;;;;;;;;;9.19;85.83;100534.00;4914166;29;20300;-76
2023/12/28 16:43:18;;;;;;;;;;;;;;;9.16;85.39;100521.00;4915032;29;19923;-76
2023/12/28 16:45:43;;;;;;;;;;;;;;;9.19;85.44;100531.31;4915842;29;19919;-77
2023/12/28 16:48:10;;;;;;;;;;;;;;;9.16;85.13;100525.53;4913970;29;19924;-76
2023/12/28 16:50:39;;;;;;;;;;;;;;;9.18;85.58;100526.16;4914507;29;20315;-76
2023/12/28 16:53:04;;;;;;;;;;;;;;;9.11;85.60;100520.75;4898353;29;19923;-75
2023/12/28 16:55:29;;;;;;;;;;;;;;;9.14;85.65;100512.31;4913605;29;20393;-77
2023/12/28 16:57:55;;;;;;;;;;;;;;;9.12;85.97;100510.81;4913436;29;19998;-75
2023/12/28 17:00:20;;;;;;;;;;;;;;;9.06;85.74;100502.53;4915575;29;19923;-76
2023/12/28 17:02:45;;;;;;;;;;;;;;;8.99;85.93;100508.88;4916235;29;19927;-76
2023/12/28 17:05:11;;;;;;;;;;;;;;;9.04;85.45;100485.78;4932545;29;19922;-76
2023/12/28 17:07:36;;;;;;;;;;;;;;;8.90;86.25;100500.97;4935643;29;19927;-75
2023/12/28 17:10:02;;;;;;;;;;;;;;;8.89;86.27;100504.66;4915202;29;19953;-75
2023/12/28 17:12:30;;;;;;;;;;;;;;;8.91;86.06;100499.94;4920233;29;19924;-74
2023/12/28 17:14:57;;;;;;;;;;;;;;;8.89;86.33;100502.00;4901891;29;19945;-77
2023/12/28 17:17:22;;;;;;;;;;;;;;;8.87;86.18;100490.59;4917177;29;19931;-75
2023/12/28 17:19:48;;;;;;;;;;;;;;;8.87;86.50;100503.22;4918373;29;19919;-75
2023/12/28 17:22:13;;;;;;;;;;;;;;;8.89;86.06;100498.50;4918103;29;19930;-75
2023/12/28 17:24:45;;;;;;;;;;;;;;;8.89;86.21;100499.31;4918051;29;19915;-75
2023/12/28 17:27:13;;;;;;;;;;;;;;;8.89;86.07;100501.16;4919130;29;19926;-75
2023/12/28 17:29:39;;;;;;;;;;;;;;;8.86;85.96;100493.50;4919014;29;19930;-75
2023/12/28 17:32:07;;;;;;;;;;;;;;;8.85;85.67;100502.56;4920512;29;20344;-75
2023/12/28 17:34:32;;;;;;;;;;;;;;;8.78;86.22;100502.53;4931724;29;19919;-75
2023/12/28 17:36:58;;;;;;;;;;;;;;;8.77;86.52;100501.69;4939902;29;19996;-75
2023/12/28 17:39:24;;;;;;;;;;;;;;;8.78;86.38;100486.41;4922161;29;19926;-75
2023/12/28 17:41:50;;;;;;;;;;;;;;;8.80;85.91;100501.28;4918611;29;20335;-75
2023/12/28 17:44:21;;;;;;;;;;;;;;;8.75;86.53;100490.31;4919816;29;19927;-75
2023/12/28 17:46:47;;;;;;;;;;;;;;;8.85;85.94;100502.56;4920980;29;19924;-75
2023/12/28 17:49:13;;;;;;;;;;;;;;;8.83;85.78;100505.44;4934110;29;20210;-75
2023/12/28 17:51:39;;;;;;;;;;;;;;;8.86;85.41;100509.59;4918331;29;19919;-75
2023/12/28 17:54:04;;;;;;;;;;;;;;;8.84;85.59;100509.78;4921676;29;20058;-75
2023/12/28 17:56:33;;;;;;;;;;;;;;;8.84;85.68;100511.66;4924788;29;19923;-75
2023/12/28 17:59:01;;;;;;;;;;;;;;;8.77;86.01;100508.91;4922801;29;19919;-75
2023/12/28 18:01:26;;;;;;;;;;;;;;;8.88;85.56;100511.06;4924076;29;19923;-76
2023/12/28 18:03:51;;;;;;;;;;;;;;;8.90;85.64;100510.88;4913531;29;19914;-76
2023/12/28 18:06:16;;;;;;;;;;;;;;;8.90;85.17;100511.69;4938018;29;19918;-75
2023/12/28 18:08:41;;;;;;;;;;;;;;;8.91;84.69;100513.38;4928455;29;19919;-76
2023/12/28 18:11:09;;;;;;;;;;;;;;;8.95;85.26;100519.16;4917841;29;19930;-76
2023/12/28 18:13:34;;;;;;;;;;;;;;;8.80;85.51;100519.28;4915712;29;19926;-76
2023/12/28 18:15:59;;;;;;;;;;;;;;;8.90;85.15;100518.94;4917807;29;20006;-75
2023/12/28 18:18:24;;;;;;;;;;;;;;;8.78;85.67;100518.63;4917844;29;19923;-76
2023/12/28 18:20:52;;;;;;;;;;;;;;;8.83;84.94;100510.00;4917642;29;19923;-76
2023/12/28 18:23:17;;;;;;;;;;;;;;;8.87;84.67;100495.97;4917744;29;19923;-76
2023/12/28 18:25:45;;;;;;;;;;;;;;;8.86;85.15;100510.41;4916692;29;20481;-76